Time;durP1;ratioP1;P1;durP2;ratioP2;P2;SDS_P1;SDS_P2;PMS_P1;PMS_P2;Temp;Humidity;BMP_temperature;BMP_pressure;BME280_temperature;BME280_humidity;BME280_pressure;Samples;Min_cycle;Max_cycle;Signal;HPM_P1;HPM_P2
2024/01/03 00:00:42;;;;;;;2.55;2.10;;;5.40;99.90;;;;;;6250655;23;20222;-82
2024/01/03 00:03:09;;;;;;;2.50;1.73;;;5.40;99.90;;;;;;6225498;23;20164;-79
2024/01/03 00:05:39;;;;;;;0.93;0.93;;;5.40;99.90;;;;;;6252233;23;20549;-82
2024/01/03 00:08:27;;;;;;;1.55;1.48;;;5.60;99.90;;;;;;6251565;23;20378;-85
2024/01/03 00:10:56;;;;;;;0.40;0.40;;;5.40;99.90;;;;;;6252165;23;20227;-82
2024/01/03 00:13:29;;;;;;;1.00;1.00;;;5.40;99.90;;;;;;6251658;23;20182;-83
2024/01/03 00:16:06;;;;;;;1.98;1.88;;;5.40;99.90;;;;;;6251049;23;20475;-84
2024/01/03 00:18:56;;;;;;;1.02;1.02;;;5.40;99.90;;;;;;6251175;23;20237;-83
2024/01/03 00:21:26;;;;;;;1.73;1.63;;;5.40;99.90;;;;;;6252113;23;20168;-83
2024/01/03 00:23:58;;;;;;;2.20;2.00;;;5.40;99.90;;;;;;6251532;23;20186;-85
2024/01/03 00:26:27;;;;;;;0.68;0.68;;;5.40;99.90;;;;;;6225572;23;20242;-82
2024/01/03 00:28:57;;;;;;;1.02;1.02;;;5.40;99.90;;;;;;6224183;23;20555;-83
2024/01/03 00:31:41;;;;;;;0.50;0.50;;;5.40;99.90;;;;;;6251338;23;20202;-82
2024/01/03 00:34:20;;;;;;;2.45;2.22;;;5.40;99.90;;;;;;6252279;23;20171;-83
2024/01/03 00:36:49;;;;;;;0.90;0.90;;;5.40;99.90;;;;;;6225230;23;20175;-80
2024/01/03 00:39:32;;;;;;;2.00;1.90;;;5.40;99.90;;;;;;6253389;23;20231;-84
2024/01/03 00:42:00;;;;;;;1.85;1.75;;;5.40;99.90;;;;;;6226337;23;20190;-83
2024/01/03 00:44:27;;;;;;;0.40;0.40;;;5.40;99.90;;;;;;6251997;23;20182;-83
2024/01/03 00:46:56;;;;;;;0.45;0.45;;;5.40;99.90;;;;;;6252346;23;20198;-83
2024/01/03 00:49:28;;;;;;;0.65;0.65;;;5.40;99.90;;;;;;6252035;23;20163;-84
2024/01/03 00:52:01;;;;;;;0.50;0.50;;;5.50;99.90;;;;;;6226366;23;20348;-81
2024/01/03 00:54:30;;;;;;;1.10;1.10;;;5.50;99.90;;;;;;6249820;23;20184;-84
2024/01/03 00:57:01;;;;;;;0.40;0.40;;;5.50;99.90;;;;;;6250537;23;20188;-79
2024/01/03 00:59:28;;;;;;;0.70;0.70;;;5.50;99.90;;;;;;6223303;23;20221;-80
2024/01/03 01:01:56;;;;;;;1.13;1.13;;;5.40;99.90;;;;;;6250189;23;20183;-79
2024/01/03 01:04:24;;;;;;;1.02;0.98;;;5.50;99.90;;;;;;6223951;23;20199;-79
2024/01/03 01:06:51;;;;;;;0.90;0.90;;;5.50;99.90;;;;;;6249950;23;20519;-80
2024/01/03 01:09:18;;;;;;;2.15;1.50;;;5.50;99.90;;;;;;6250214;23;20352;-79
2024/01/03 01:11:45;;;;;;;0.45;0.45;;;5.50;99.90;;;;;;6249786;23;20191;-81
2024/01/03 01:14:12;;;;;;;2.25;2.15;;;5.50;99.90;;;;;;6249373;23;20176;-80
2024/01/03 01:16:39;;;;;;;1.98;1.88;;;5.50;99.90;;;;;;6249452;23;20190;-79
2024/01/03 01:19:07;;;;;;;0.90;0.90;;;5.50;99.90;;;;;;6249396;23;20639;-81
2024/01/03 01:21:34;;;;;;;0.50;0.50;;;5.50;99.90;;;;;;6250373;23;20176;-80
2024/01/03 01:24:01;;;;;;;2.15;2.03;;;5.50;99.90;;;;;;6224596;23;20184;-79
2024/01/03 01:26:28;;;;;;;3.00;2.40;;;5.50;99.90;;;;;;6250832;23;20199;-80
2024/01/03 01:28:56;;;;;;;3.42;2.45;;;5.50;99.90;;;;;;6251049;23;20210;-80
2024/01/03 01:31:23;;;;;;;0.50;0.50;;;5.50;99.90;;;;;;6223524;23;20274;-80
2024/01/03 01:33:51;;;;;;;0.75;0.75;;;5.50;99.90;;;;;;6249503;23;20183;-79
2024/01/03 01:36:18;;;;;;;0.68;0.68;;;5.50;99.90;;;;;;6224386;23;20218;-82
2024/01/03 01:38:47;;;;;;;0.73;0.73;;;5.50;99.90;;;;;;6251235;23;20195;-84
2024/01/03 01:41:14;;;;;;;1.33;1.23;;;5.60;99.90;;;;;;6199301;23;20272;-84
2024/01/03 01:43:41;;;;;;;0.60;0.60;;;5.50;99.90;;;;;;6224542;23;20246;-83
2024/01/03 01:46:11;;;;;;;0.70;0.70;;;5.50;99.90;;;;;;6201207;23;20211;-83
2024/01/03 01:48:41;;;;;;;1.35;1.30;;;5.50;99.90;;;;;;6225659;23;20210;-82
2024/01/03 01:51:11;;;;;;;1.35;1.25;;;5.60;99.90;;;;;;6251020;23;20494;-80
2024/01/03 01:53:41;;;;;;;0.43;0.43;;;5.60;99.90;;;;;;6250224;23;20191;-81
2024/01/03 01:56:10;;;;;;;0.60;0.60;;;5.50;99.90;;;;;;6249834;23;20538;-82
2024/01/03 01:58:40;;;;;;;0.98;0.98;;;5.60;99.90;;;;;;6223861;23;20257;-83
2024/01/03 02:01:08;;;;;;;0.47;0.47;;;5.60;99.90;;;;;;6251931;23;20168;-81
2024/01/03 02:03:37;;;;;;;0.40;0.40;;;5.60;99.90;;;;;;6251566;23;20207;-80
2024/01/03 02:06:08;;;;;;;0.50;0.50;;;5.60;99.90;;;;;;6224046;23;20172;-82
2024/01/03 02:08:35;;;;;;;2.35;2.25;;;5.60;99.90;;;;;;6249757;23;20340;-79
2024/01/03 02:11:04;;;;;;;1.75;1.65;;;5.70;99.90;;;;;;6223116;23;20184;-81
2024/01/03 02:13:31;;;;;;;0.50;0.50;;;5.70;99.90;;;;;;6249068;23;20184;-79
2024/01/03 02:15:58;;;;;;;1.08;1.02;;;5.70;99.90;;;;;;6249275;23;20418;-81
2024/01/03 02:18:27;;;;;;;2.55;2.38;;;5.70;99.90;;;;;;6253053;23;20250;-79
2024/01/03 02:20:57;;;;;;;1.40;1.30;;;5.70;99.90;;;;;;6265041;22;20219;-79
2024/01/03 02:23:24;;;;;;;0.80;0.80;;;5.80;99.90;;;;;;6245221;23;20172;-81
2024/01/03 02:25:53;;;;;;;0.93;0.93;;;5.80;99.90;;;;;;6269107;22;20187;-80
2024/01/03 02:28:21;;;;;;;0.45;0.45;;;5.70;99.90;;;;;;6256065;23;20630;-81
2024/01/03 02:30:48;;;;;;;0.50;0.50;;;5.80;99.90;;;;;;6252602;23;20248;-81
2024/01/03 02:33:18;;;;;;;0.40;0.40;;;5.80;99.90;;;;;;6251328;23;20195;-79
2024/01/03 02:35:45;;;;;;;0.88;0.88;;;5.80;99.90;;;;;;6251517;23;20184;-79
2024/01/03 02:38:13;;;;;;;2.20;2.03;;;5.80;99.90;;;;;;6249640;23;20199;-79
2024/01/03 02:40:40;;;;;;;2.00;1.75;;;5.90;99.90;;;;;;6249086;23;20184;-80
2024/01/03 02:43:07;;;;;;;0.93;0.93;;;5.90;99.90;;;;;;6247798;23;20183;-80
2024/01/03 02:45:34;;;;;;;1.20;1.20;;;5.90;99.90;;;;;;6248559;23;20552;-82
2024/01/03 02:48:01;;;;;;;1.67;1.58;;;5.90;99.90;;;;;;6247935;23;20199;-81
2024/01/03 02:50:28;;;;;;;1.05;0.80;;;5.90;99.90;;;;;;6225246;23;20183;-80
2024/01/03 02:52:56;;;;;;;11.82;2.88;;;6.00;99.90;;;;;;6258294;23;20179;-80
2024/01/03 02:55:23;;;;;;;0.82;0.82;;;6.00;99.90;;;;;;6259155;23;20206;-80
2024/01/03 02:57:50;;;;;;;0.70;0.70;;;6.00;99.90;;;;;;6256857;23;20264;-78
2024/01/03 03:00:17;;;;;;;0.65;0.65;;;6.00;99.90;;;;;;6255252;23;20505;-79
2024/01/03 03:02:44;;;;;;;1.02;1.02;;;6.00;99.90;;;;;;6249836;23;20187;-80
2024/01/03 03:05:11;;;;;;;0.30;0.30;;;6.00;99.90;;;;;;6249712;23;20540;-79
2024/01/03 03:07:38;;;;;;;0.40;0.40;;;6.00;99.90;;;;;;6249968;23;20191;-80
2024/01/03 03:10:07;;;;;;;1.63;1.52;;;6.00;99.90;;;;;;6249879;23;20187;-79
2024/01/03 03:12:34;;;;;;;0.80;0.80;;;6.00;99.90;;;;;;6249564;23;20176;-78
2024/01/03 03:15:02;;;;;;;0.40;0.40;;;6.10;99.90;;;;;;6224902;23;20190;-79
2024/01/03 03:17:29;;;;;;;1.20;1.00;;;6.10;99.90;;;;;;6250811;23;20176;-82
2024/01/03 03:19:56;;;;;;;0.40;0.40;;;6.10;99.90;;;;;;6249040;23;20250;-80
2024/01/03 03:22:23;;;;;;;0.40;0.40;;;6.10;99.90;;;;;;6249754;23;20176;-80
2024/01/03 03:24:52;;;;;;;1.30;0.98;;;6.10;99.90;;;;;;6250448;23;20183;-80
2024/01/03 03:27:21;;;;;;;0.40;0.40;;;6.10;99.90;;;;;;6251547;23;20183;-80
2024/01/03 03:29:49;;;;;;;0.30;0.30;;;6.10;99.90;;;;;;6222865;23;20238;-80
2024/01/03 03:32:25;;;;;;;0.40;0.40;;;6.10;99.90;;;;;;6249576;23;20491;-80
2024/01/03 03:34:53;;;;;;;0.40;0.40;;;6.10;99.90;;;;;;6249312;23;20184;-79
2024/01/03 03:37:20;;;;;;;0.40;0.40;;;6.10;99.90;;;;;;6249272;23;20214;-81
2024/01/03 03:39:47;;;;;;;0.40;0.40;;;6.10;99.90;;;;;;6251334;23;20274;-79
2024/01/03 03:42:14;;;;;;;0.40;0.40;;;6.10;99.90;;;;;;6250736;23;20210;-81
2024/01/03 03:44:43;;;;;;;0.40;0.40;;;6.10;99.90;;;;;;6250040;23;20211;-81
2024/01/03 03:47:11;;;;;;;0.40;0.40;;;6.10;99.90;;;;;;6249769;23;20495;-80
2024/01/03 03:49:37;;;;;;;0.50;0.50;;;6.10;99.90;;;;;;6250512;23;20191;-80
2024/01/03 03:52:05;;;;;;;0.40;0.40;;;6.10;99.90;;;;;;6250180;23;20235;-79
2024/01/03 03:54:32;;;;;;;0.40;0.40;;;6.10;99.90;;;;;;6250117;23;20255;-78
2024/01/03 03:56:59;;;;;;;0.40;0.40;;;6.00;99.90;;;;;;6250727;23;20183;-79
2024/01/03 03:59:26;;;;;;;0.40;0.40;;;6.00;99.90;;;;;;6251463;23;20267;-80
2024/01/03 04:01:54;;;;;;;0.30;0.30;;;6.00;99.90;;;;;;6251400;23;20183;-79
2024/01/03 04:04:22;;;;;;;0.40;0.40;;;6.00;99.90;;;;;;6251015;23;20215;-79
2024/01/03 04:06:49;;;;;;;0.40;0.40;;;6.00;99.90;;;;;;6250821;23;20242;-80
2024/01/03 04:09:19;;;;;;;0.40;0.40;;;6.10;99.90;;;;;;6251150;23;20187;-80
2024/01/03 04:11:48;;;;;;;0.40;0.40;;;6.10;99.90;;;;;;6251196;23;20164;-80
2024/01/03 04:14:15;;;;;;;3.50;1.63;;;6.10;99.90;;;;;;6250887;23;20188;-80
2024/01/03 04:16:42;;;;;;;0.40;0.40;;;6.20;99.90;;;;;;6250400;23;20183;-80
2024/01/03 04:19:09;;;;;;;0.30;0.30;;;6.30;99.90;;;;;;6250554;23;20206;-80
2024/01/03 04:21:36;;;;;;;0.40;0.40;;;6.30;99.90;;;;;;6223311;23;20183;-80
2024/01/03 04:24:03;;;;;;;0.40;0.40;;;6.40;99.90;;;;;;6250911;23;20542;-80
2024/01/03 04:26:30;;;;;;;0.30;0.30;;;6.40;99.90;;;;;;6251291;23;20202;-81
2024/01/03 04:29:00;;;;;;;0.40;0.40;;;6.40;99.90;;;;;;6226194;23;20247;-81
2024/01/03 04:31:29;;;;;;;0.60;0.60;;;6.40;99.90;;;;;;6249862;23;20187;-82
2024/01/03 04:34:00;;;;;;;0.50;0.50;;;6.50;99.90;;;;;;6250138;23;20179;-80
2024/01/03 04:36:28;;;;;;;0.40;0.40;;;6.60;99.90;;;;;;6223528;23;20255;-83
2024/01/03 04:38:57;;;;;;;0.40;0.40;;;6.60;99.90;;;;;;6250969;23;20204;-82
2024/01/03 04:41:25;;;;;;;0.40;0.40;;;6.60;99.90;;;;;;6248563;23;20203;-80
2024/01/03 04:43:52;;;;;;;0.50;0.50;;;6.70;99.90;;;;;;6248973;23;20184;-80
2024/01/03 04:46:20;;;;;;;0.30;0.30;;;6.80;99.90;;;;;;6250195;23;20183;-80
2024/01/03 04:48:46;;;;;;;0.40;0.40;;;6.80;99.90;;;;;;6250015;23;20195;-79
2024/01/03 04:51:15;;;;;;;0.40;0.40;;;6.70;99.90;;;;;;6249170;23;20210;-80
2024/01/03 04:53:45;;;;;;;0.40;0.40;;;6.70;99.90;;;;;;6249384;23;20255;-81
2024/01/03 04:56:13;;;;;;;0.40;0.40;;;6.80;99.90;;;;;;6247364;23;20183;-80
2024/01/03 04:58:40;;;;;;;0.40;0.40;;;6.90;99.90;;;;;;6249425;23;20286;-79
2024/01/03 05:01:07;;;;;;;0.30;0.30;;;7.00;99.90;;;;;;6249607;23;20183;-80
2024/01/03 05:03:34;;;;;;;0.30;0.30;;;7.00;99.90;;;;;;6250128;23;20195;-80
2024/01/03 05:06:02;;;;;;;0.40;0.40;;;7.00;99.90;;;;;;6252513;23;20183;-80
2024/01/03 05:08:30;;;;;;;0.40;0.40;;;7.10;99.90;;;;;;6256099;23;20203;-80
2024/01/03 05:10:57;;;;;;;0.40;0.40;;;7.20;99.90;;;;;;6250908;23;20190;-80
2024/01/03 05:13:25;;;;;;;0.30;0.30;;;7.20;99.90;;;;;;6251623;23;20347;-79
2024/01/03 05:15:53;;;;;;;0.40;0.40;;;7.30;99.90;;;;;;6270807;22;20546;-83
2024/01/03 05:18:19;;;;;;;0.38;0.38;;;7.20;99.90;;;;;;6267620;22;20183;-82
2024/01/03 05:20:47;;;;;;;0.40;0.40;;;7.10;99.90;;;;;;6265728;23;20227;-80
2024/01/03 05:23:14;;;;;;;0.40;0.40;;;7.20;99.90;;;;;;6237441;23;20178;-81
2024/01/03 05:25:43;;;;;;;0.40;0.40;;;7.10;99.90;;;;;;6259370;23;20175;-82
2024/01/03 05:28:10;;;;;;;0.30;0.30;;;7.10;99.90;;;;;;6255660;23;20184;-80
2024/01/03 05:30:37;;;;;;;0.40;0.40;;;7.00;99.90;;;;;;6250556;23;20207;-81
2024/01/03 05:33:04;;;;;;;0.40;0.40;;;6.90;99.90;;;;;;6259038;23;20175;-80
2024/01/03 05:35:32;;;;;;;0.40;0.40;;;6.90;99.90;;;;;;6262942;23;20479;-82
2024/01/03 05:37:59;;;;;;;0.40;0.40;;;6.90;99.90;;;;;;6254446;23;20270;-81
2024/01/03 05:40:26;;;;;;;0.40;0.40;;;7.10;99.90;;;;;;6251762;23;20266;-80
2024/01/03 05:42:53;;;;;;;0.35;0.35;;;7.10;99.90;;;;;;6251364;23;20518;-80
2024/01/03 05:45:20;;;;;;;0.30;0.30;;;7.10;99.90;;;;;;6249300;23;20243;-81
2024/01/03 05:47:47;;;;;;;0.40;0.40;;;6.90;99.90;;;;;;6227720;22;20548;-87
2024/01/03 05:50:14;;;;;;;0.40;0.40;;;6.90;99.90;;;;;;6211968;22;20211;-82
2024/01/03 05:52:42;;;;;;;0.30;0.30;;;7.00;99.90;;;;;;6248364;23;20183;-83
2024/01/03 05:55:09;;;;;;;0.40;0.40;;;6.90;99.90;;;;;;6248848;23;20210;-82
2024/01/03 05:57:36;;;;;;;0.35;0.35;;;7.00;99.90;;;;;;6248320;23;20207;-82
2024/01/03 06:00:04;;;;;;;0.40;0.40;;;7.20;99.90;;;;;;6247728;23;20594;-81
2024/01/03 06:02:33;;;;;;;0.30;0.30;;;7.20;99.90;;;;;;6248852;23;20202;-81
2024/01/03 06:05:00;;;;;;;0.30;0.30;;;7.30;99.90;;;;;;6249522;23;20189;-81
2024/01/03 06:07:27;;;;;;;0.40;0.40;;;7.40;99.90;;;;;;6248438;23;20622;-81
2024/01/03 06:09:55;;;;;;;0.40;0.40;;;7.30;99.90;;;;;;6249082;23;20211;-82
2024/01/03 06:12:23;;;;;;;0.30;0.30;;;7.30;99.90;;;;;;6248819;23;20187;-82
2024/01/03 06:14:51;;;;;;;0.40;0.40;;;7.10;99.90;;;;;;6247987;23;20210;-81
2024/01/03 06:17:19;;;;;;;0.30;0.30;;;7.00;99.90;;;;;;6250727;23;20953;-83
2024/01/03 06:19:46;;;;;;;0.40;0.40;;;7.00;99.90;;;;;;6222198;23;20208;-80
2024/01/03 06:22:14;;;;;;;0.40;0.40;;;7.10;99.90;;;;;;6245982;23;20187;-81
2024/01/03 06:24:41;;;;;;;0.30;0.30;;;7.20;99.90;;;;;;6248098;23;20242;-80
2024/01/03 06:27:08;;;;;;;0.40;0.40;;;7.30;99.90;;;;;;6250765;23;20183;-82
2024/01/03 06:29:35;;;;;;;0.32;0.32;;;7.20;99.90;;;;;;6252819;23;20222;-82
2024/01/03 06:32:06;;;;;;;0.40;0.40;;;7.40;99.90;;;;;;6247552;23;20187;-81
2024/01/03 06:34:35;;;;;;;0.40;0.40;;;7.50;99.90;;;;;;6248702;23;20246;-80
2024/01/03 06:37:02;;;;;;;0.40;0.40;;;7.60;99.90;;;;;;6248265;23;20410;-82
2024/01/03 06:39:30;;;;;;;0.40;0.40;;;7.70;99.90;;;;;;6248226;23;20235;-82
2024/01/03 06:41:56;;;;;;;0.30;0.30;;;7.70;99.90;;;;;;6248582;23;20207;-82
2024/01/03 06:44:24;;;;;;;0.30;0.30;;;7.70;99.90;;;;;;6249734;23;20191;-81
2024/01/03 06:46:51;;;;;;;0.40;0.40;;;7.60;99.90;;;;;;6222320;23;20422;-82
2024/01/03 06:49:18;;;;;;;0.50;0.50;;;7.70;99.90;;;;;;6248585;23;20613;-84
2024/01/03 06:51:45;;;;;;;0.40;0.40;;;7.70;99.90;;;;;;6249266;23;20179;-82
2024/01/03 06:54:13;;;;;;;0.50;0.50;;;7.70;99.90;;;;;;6249462;23;20247;-80
2024/01/03 06:56:39;;;;;;;0.40;0.40;;;7.60;99.90;;;;;;6249029;23;20218;-81
2024/01/03 06:59:07;;;;;;;0.40;0.40;;;7.50;99.90;;;;;;6222392;23;20636;-82
2024/01/03 07:01:33;;;;;;;0.40;0.40;;;7.50;99.90;;;;;;6250013;23;20176;-82
2024/01/03 07:04:01;;;;;;;0.35;0.35;;;7.60;99.90;;;;;;6249426;23;20207;-81
2024/01/03 07:06:28;;;;;;;0.40;0.40;;;7.60;99.90;;;;;;6261532;22;20232;-81
2024/01/03 07:08:56;;;;;;;0.40;0.40;;;7.60;99.90;;;;;;6264240;23;20255;-80
2024/01/03 07:11:23;;;;;;;0.40;0.40;;;7.60;99.90;;;;;;6268405;22;20179;-81
2024/01/03 07:13:50;;;;;;;0.40;0.40;;;7.70;99.90;;;;;;6260967;22;20187;-81
2024/01/03 07:16:18;;;;;;;1.25;1.15;;;7.80;99.90;;;;;;6257316;23;20179;-82
2024/01/03 07:18:47;;;;;;;0.50;0.50;;;7.80;99.90;;;;;;6272839;22;20156;-81
2024/01/03 07:21:16;;;;;;;0.63;0.63;;;7.80;99.90;;;;;;6266972;22;20187;-81
2024/01/03 07:23:44;;;;;;;0.40;0.40;;;7.90;99.90;;;;;;6239956;23;20179;-78
2024/01/03 07:26:11;;;;;;;0.98;0.98;;;7.90;99.90;;;;;;6275107;22;20155;-82
2024/01/03 07:28:38;;;;;;;0.50;0.50;;;7.90;99.90;;;;;;6274290;22;20171;-80
2024/01/03 07:31:05;;;;;;;1.05;1.05;;;7.90;99.90;;;;;;6274513;22;20164;-80
2024/01/03 07:33:33;;;;;;;0.50;0.50;;;8.00;99.90;;;;;;6272954;22;20195;-81
2024/01/03 07:36:00;;;;;;;0.40;0.40;;;7.80;99.90;;;;;;6270674;22;20191;-81
2024/01/03 07:38:29;;;;;;;0.40;0.40;;;7.80;99.90;;;;;;6265948;23;20231;-81
2024/01/03 07:40:56;;;;;;;0.40;0.40;;;7.70;99.90;;;;;;6232206;23;20238;-81
2024/01/03 07:43:23;;;;;;;0.70;0.70;;;7.70;99.90;;;;;;6251784;23;20184;-80
2024/01/03 07:45:51;;;;;;;0.45;0.45;;;7.80;99.90;;;;;;6198450;23;20215;-80
2024/01/03 07:48:18;;;;;;;0.52;0.52;;;7.70;99.90;;;;;;6250684;23;20207;-82
2024/01/03 07:50:45;;;;;;;0.75;0.75;;;7.90;99.90;;;;;;6250429;23;20191;-83
2024/01/03 07:53:13;;;;;;;0.40;0.40;;;7.90;99.90;;;;;;6249750;23;20250;-80
2024/01/03 07:55:40;;;;;;;0.43;0.43;;;8.00;99.90;;;;;;6250042;23;20199;-80
2024/01/03 07:58:09;;;;;;;0.40;0.40;;;8.00;99.90;;;;;;6224071;23;20491;-80
2024/01/03 08:00:36;;;;;;;0.90;0.88;;;7.90;99.90;;;;;;6251207;23;20200;-80
2024/01/03 08:03:04;;;;;;;1.35;1.30;;;7.80;99.90;;;;;;6223517;23;20190;-80
2024/01/03 08:05:33;;;;;;;0.40;0.40;;;7.80;99.90;;;;;;6225111;23;20351;-81
2024/01/03 08:08:00;;;;;;;0.40;0.40;;;7.90;99.90;;;;;;6251263;23;20183;-81
2024/01/03 08:10:27;;;;;;;0.40;0.40;;;8.00;99.90;;;;;;6250280;23;20211;-80
2024/01/03 08:12:54;;;;;;;0.40;0.40;;;8.00;99.90;;;;;;6250831;23;20553;-81
2024/01/03 08:15:21;;;;;;;0.40;0.40;;;8.10;99.90;;;;;;6223354;23;20176;-82
2024/01/03 08:17:48;;;;;;;0.40;0.40;;;8.20;99.90;;;;;;6250132;23;20551;-80
2024/01/03 08:20:15;;;;;;;0.82;0.82;;;8.30;99.90;;;;;;6250503;23;20238;-82
2024/01/03 08:22:43;;;;;;;0.50;0.50;;;8.40;99.90;;;;;;6249891;23;20179;-81
2024/01/03 08:25:10;;;;;;;0.40;0.40;;;8.30;99.90;;;;;;6223642;23;20728;-80
2024/01/03 08:27:38;;;;;;;0.40;0.40;;;8.50;99.90;;;;;;6249895;23;20183;-79
2024/01/03 08:30:06;;;;;;;0.40;0.40;;;8.60;99.90;;;;;;6250400;23;20183;-80
2024/01/03 08:32:36;;;;;;;0.52;0.52;;;8.60;99.90;;;;;;6223691;23;20188;-79
2024/01/03 08:35:05;;;;;;;0.68;0.68;;;8.60;99.90;;;;;;6249207;23;20194;-81
2024/01/03 08:37:32;;;;;;;0.40;0.40;;;8.60;99.90;;;;;;6251029;22;20183;-82
2024/01/03 08:40:01;;;;;;;0.40;0.40;;;8.60;99.90;;;;;;6251779;23;20200;-79
2024/01/03 08:42:27;;;;;;;0.50;0.50;;;8.60;99.90;;;;;;6254819;23;20176;-82
2024/01/03 08:44:54;;;;;;;0.50;0.50;;;8.60;99.90;;;;;;6254822;23;20226;-81
2024/01/03 08:47:22;;;;;;;1.83;1.52;;;8.70;99.90;;;;;;6252763;23;20226;-80
2024/01/03 08:49:49;;;;;;;0.50;0.50;;;8.90;99.90;;;;;;6225758;23;20187;-82
2024/01/03 08:52:16;;;;;;;0.60;0.60;;;8.90;99.90;;;;;;6258329;23;20179;-80
2024/01/03 08:54:43;;;;;;;0.47;0.47;;;9.00;99.90;;;;;;6250123;23;20183;-81
2024/01/03 08:57:11;;;;;;;0.60;0.60;;;8.90;99.90;;;;;;6250942;23;20235;-80
2024/01/03 08:59:40;;;;;;;0.60;0.60;;;8.70;99.90;;;;;;6249831;23;20226;-80
2024/01/03 09:02:07;;;;;;;2.72;1.80;;;8.80;99.90;;;;;;6249603;23;20230;-80
2024/01/03 09:04:34;;;;;;;0.60;0.60;;;9.00;99.90;;;;;;6250137;23;20184;-80
2024/01/03 09:07:01;;;;;;;1.40;1.30;;;9.30;99.90;;;;;;6250909;23;20188;-80
2024/01/03 09:09:28;;;;;;;2.15;0.85;;;9.30;99.90;;;;;;6249133;23;20265;-82
2024/01/03 09:11:55;;;;;;;0.50;0.50;;;9.30;99.90;;;;;;6224663;23;20416;-80
2024/01/03 09:14:22;;;;;;;0.68;0.68;;;9.40;99.90;;;;;;6223724;23;20509;-80
2024/01/03 09:16:50;;;;;;;1.80;1.70;;;9.20;99.90;;;;;;6250724;23;20247;-81
2024/01/03 09:19:18;;;;;;;1.73;1.15;;;9.30;99.90;;;;;;6249043;23;20229;-81
2024/01/03 09:21:46;;;;;;;0.82;0.82;;;9.50;99.90;;;;;;6250066;23;20184;-82
2024/01/03 09:24:13;;;;;;;0.40;0.40;;;9.40;99.90;;;;;;6248710;23;20459;-80
2024/01/03 09:26:41;;;;;;;0.40;0.40;;;9.40;99.90;;;;;;6249362;23;20337;-81
2024/01/03 09:29:10;;;;;;;1.30;0.98;;;9.30;99.90;;;;;;6249831;23;20615;-80
2024/01/03 09:31:43;;;;;;;0.65;0.65;;;9.50;99.90;;;;;;6249069;23;20183;-81
2024/01/03 09:34:11;;;;;;;0.50;0.50;;;9.40;99.90;;;;;;6249471;23;20183;-81
2024/01/03 09:36:38;;;;;;;0.65;0.65;;;9.50;99.90;;;;;;6223125;23;20202;-84
2024/01/03 09:39:05;;;;;;;0.70;0.70;;;9.40;99.90;;;;;;6222978;23;20202;-80
2024/01/03 09:41:34;;;;;;;0.50;0.50;;;9.40;99.90;;;;;;6225478;23;20183;-82
2024/01/03 09:44:03;;;;;;;0.50;0.50;;;9.40;99.90;;;;;;6249756;23;20190;-82
2024/01/03 09:46:34;;;;;;;0.47;0.47;;;9.40;99.90;;;;;;6249609;23;20168;-83
2024/01/03 09:49:01;;;;;;;0.80;0.80;;;9.40;99.90;;;;;;6248953;23;20176;-82
2024/01/03 09:51:28;;;;;;;0.60;0.60;;;9.60;99.90;;;;;;6249527;23;20206;-81
2024/01/03 09:53:57;;;;;;;1.45;1.42;;;9.90;99.90;;;;;;6222334;23;20210;-81
2024/01/03 09:56:25;;;;;;;1.02;1.02;;;10.00;99.90;;;;;;6249093;23;20187;-81
2024/01/03 09:58:52;;;;;;;0.50;0.50;;;10.10;99.90;;;;;;6249202;23;20206;-81
2024/01/03 10:01:19;;;;;;;0.60;0.60;;;10.20;99.90;;;;;;6249612;23;20200;-80
2024/01/03 10:03:48;;;;;;;0.50;0.50;;;10.30;99.90;;;;;;6249219;23;20495;-80
2024/01/03 10:06:15;;;;;;;0.55;0.55;;;10.40;99.90;;;;;;6249952;23;20212;-81
2024/01/03 10:09:01;;;;;;;0.60;0.60;;;10.40;99.90;;;;;;6230752;23;20166;-80
2024/01/03 10:11:28;;;;;;;0.50;0.50;;;10.50;99.90;;;;;;6253114;23;20242;-80
2024/01/03 10:14:12;;;;;;;0.60;0.60;;;10.50;99.90;;;;;;6250183;23;20371;-81
2024/01/03 10:16:39;;;;;;;0.70;0.70;;;10.50;99.90;;;;;;6249036;23;20168;-81
2024/01/03 10:19:11;;;;;;;0.70;0.70;;;10.40;99.90;;;;;;6222757;23;20183;-80
2024/01/03 10:21:47;;;;;;;0.98;0.98;;;10.40;99.90;;;;;;6249304;23;20515;-79
2024/01/03 10:24:18;;;;;;;0.50;0.50;;;10.20;99.90;;;;;;6249285;23;20159;-80
2024/01/03 10:26:48;;;;;;;1.80;1.73;;;10.30;99.90;;;;;;6249468;23;20175;-80
2024/01/03 10:29:17;;;;;;;0.50;0.50;;;10.10;99.90;;;;;;6251150;23;20179;-82
2024/01/03 10:31:48;;;;;;;0.50;0.50;;;10.30;99.90;;;;;;6262888;23;20180;-79
2024/01/03 10:34:23;;;;;;;0.50;0.50;;;10.40;99.90;;;;;;6240049;23;20164;-80
2024/01/03 10:36:53;;;;;;;0.77;0.77;;;10.40;99.90;;;;;;6250886;23;20222;-80
2024/01/03 10:39:21;;;;;;;0.50;0.50;;;10.50;99.90;;;;;;6249006;23;20183;-81
2024/01/03 10:41:50;;;;;;;0.50;0.50;;;10.40;99.90;;;;;;6249114;23;20183;-80
2024/01/03 10:44:18;;;;;;;0.70;0.70;;;10.30;99.90;;;;;;6249533;23;20174;-80
2024/01/03 10:46:48;;;;;;;0.50;0.50;;;10.40;99.90;;;;;;6252713;23;20188;-79
2024/01/03 10:49:16;;;;;;;0.55;0.55;;;10.30;99.90;;;;;;6262039;23;20183;-79
2024/01/03 10:51:46;;;;;;;0.50;0.50;;;10.60;99.90;;;;;;6237984;23;20182;-79
2024/01/03 10:54:17;;;;;;;0.80;0.80;;;10.70;99.90;;;;;;6266959;22;20388;-81
2024/01/03 10:56:50;;;;;;;0.50;0.50;;;10.60;99.90;;;;;;6267978;23;20187;-81
2024/01/03 10:59:21;;;;;;;0.60;0.60;;;10.60;99.90;;;;;;6268715;22;20203;-82
2024/01/03 11:02:05;;;;;;;0.50;0.50;;;10.70;99.90;;;;;;6269294;23;20194;-81
2024/01/03 11:05:13;;;;;;;0.50;0.50;;;10.80;99.90;;;;;;6244474;23;20159;-81
2024/01/03 11:07:50;;;;;;;0.50;0.50;;;11.10;99.90;;;;;;6212443;22;20179;-81
2024/01/03 11:10:47;;;;;;;0.50;0.50;;;11.30;99.90;;;;;;6272643;22;20164;-81
2024/01/03 11:13:34;;;;;;;0.50;0.50;;;11.40;99.90;;;;;;6246015;22;20239;-81
2024/01/03 11:16:05;;;;;;;1.25;1.25;;;11.50;99.90;;;;;;6269416;22;20188;-81
2024/01/03 11:18:44;;;;;;;0.60;0.60;;;11.50;99.90;;;;;;6245248;22;20179;-80
2024/01/03 11:21:26;;;;;;;0.50;0.50;;;11.40;99.90;;;;;;6271405;22;20233;-80
2024/01/03 11:23:53;;;;;;;0.50;0.50;;;11.50;99.90;;;;;;6245367;22;20190;-80
2024/01/03 11:26:53;;;;;;;0.50;0.50;;;11.50;99.90;;;;;;6271443;22;20168;-81
2024/01/03 11:29:41;;;;;;;1.25;1.15;;;11.50;99.90;;;;;;6271090;22;20164;-80
2024/01/03 11:32:09;;;;;;;0.50;0.50;;;11.60;99.90;;;;;;6272025;22;20164;-82
2024/01/03 11:34:45;;;;;;;0.50;0.50;;;11.70;99.90;;;;;;6245366;22;20168;-82
2024/01/03 11:37:19;;;;;;;0.60;0.60;;;11.70;99.90;;;;;;6271065;22;20171;-81
2024/01/03 11:39:49;;;;;;;0.50;0.50;;;11.70;99.90;;;;;;6245198;22;20156;-82
2024/01/03 11:42:19;;;;;;;0.60;0.60;;;11.80;99.90;;;;;;6271429;22;20163;-81
2024/01/03 11:44:59;;;;;;;0.60;0.60;;;11.80;99.90;;;;;;6262666;23;20211;-83
2024/01/03 11:47:27;;;;;;;0.60;0.60;;;11.90;99.90;;;;;;6255332;23;20187;-80
2024/01/03 11:49:56;;;;;;;0.50;0.50;;;12.00;99.90;;;;;;6256967;23;20192;-81
2024/01/03 11:52:25;;;;;;;0.60;0.60;;;12.00;99.90;;;;;;6244542;22;20176;-80
2024/01/03 11:55:06;;;;;;;0.50;0.50;;;11.80;99.90;;;;;;6270863;22;20415;-81
2024/01/03 11:57:34;;;;;;;0.50;0.50;;;11.60;99.90;;;;;;6237841;22;20615;-80
2024/01/03 12:00:05;;;;;;;0.60;0.60;;;11.60;99.90;;;;;;6256097;23;20208;-81
2024/01/03 12:02:32;;;;;;;3.63;2.42;;;11.60;99.90;;;;;;6228011;23;20534;-80
2024/01/03 12:05:05;;;;;;;0.60;0.60;;;11.40;99.90;;;;;;6265472;22;20198;-80
2024/01/03 12:07:36;;;;;;;0.60;0.60;;;11.50;99.90;;;;;;6220374;23;20206;-84
2024/01/03 12:10:04;;;;;;;0.90;0.90;;;11.40;99.90;;;;;;6271296;22;20279;-82
2024/01/03 12:12:33;;;;;;;0.50;0.50;;;11.40;99.90;;;;;;6263242;23;20211;-82
2024/01/03 12:15:02;;;;;;;0.50;0.50;;;11.40;99.90;;;;;;6253944;23;20214;-82
2024/01/03 12:17:34;;;;;;;0.50;0.50;;;11.30;99.90;;;;;;6253997;23;20183;-80
2024/01/03 12:20:12;;;;;;;1.50;0.90;;;11.40;99.90;;;;;;6251929;23;20311;-81
2024/01/03 12:22:40;;;;;;;0.50;0.50;;;11.30;99.90;;;;;;6224445;23;20367;-81
2024/01/03 12:25:25;;;;;;;1.00;1.00;;;11.20;99.90;;;;;;6225236;23;20471;-80
2024/01/03 12:27:56;;;;;;;0.50;0.50;;;11.20;99.90;;;;;;6250909;23;20174;-82
2024/01/03 12:30:23;;;;;;;0.50;0.50;;;11.20;99.90;;;;;;6250968;23;20195;-81
2024/01/03 12:33:04;;;;;;;0.60;0.60;;;11.10;99.90;;;;;;6251070;23;20194;-81
2024/01/03 12:35:32;;;;;;;0.50;0.50;;;10.90;99.90;;;;;;6251531;23;20174;-80
2024/01/03 12:37:59;;;;;;;0.80;0.80;;;10.90;99.90;;;;;;6251462;23;20187;-81
2024/01/03 12:40:26;;;;;;;0.57;0.57;;;10.90;99.90;;;;;;6251664;23;20391;-79
2024/01/03 12:42:53;;;;;;;0.50;0.50;;;10.90;99.90;;;;;;6252696;23;20184;-81
2024/01/03 12:45:24;;;;;;;0.50;0.50;;;10.80;99.90;;;;;;6251355;23;20534;-81
2024/01/03 12:47:51;;;;;;;0.50;0.50;;;10.80;99.90;;;;;;6252056;23;20180;-80
2024/01/03 12:50:18;;;;;;;0.60;0.60;;;10.70;99.90;;;;;;6251029;23;20195;-80
2024/01/03 12:52:45;;;;;;;1.58;1.48;;;10.60;99.90;;;;;;6224564;23;20187;-81
2024/01/03 12:55:14;;;;;;;0.50;0.50;;;10.50;99.90;;;;;;6250833;23;20198;-81
2024/01/03 12:57:42;;;;;;;2.00;1.27;;;10.40;99.90;;;;;;6249809;23;20187;-80
2024/01/03 13:00:10;;;;;;;0.50;0.50;;;10.30;99.90;;;;;;6252298;23;20184;-81
2024/01/03 13:02:37;;;;;;;0.50;0.50;;;10.30;99.90;;;;;;6225084;23;20183;-81
2024/01/03 13:05:05;;;;;;;0.98;0.98;;;10.30;99.90;;;;;;6253382;23;20182;-81